createdAt,value
2023-06-20T00:00:38.909Z,0
2023-06-20T00:01:56.000Z,0
2023-06-20T00:03:12.000Z,0
2023-06-20T00:04:28.000Z,0
2023-06-20T00:05:44.000Z,0
2023-06-20T00:07:00.000Z,0
2023-06-20T00:08:17.000Z,0
2023-06-20T00:09:33.000Z,0
2023-06-20T00:10:49.000Z,0
2023-06-20T00:12:05.000Z,0
2023-06-20T00:13:20.797Z,0
2023-06-20T00:14:37.000Z,0
2023-06-20T00:15:53.000Z,0
2023-06-20T00:17:09.000Z,0
2023-06-20T00:18:25.000Z,0
2023-06-20T00:19:41.000Z,0
2023-06-20T00:20:57.000Z,0
2023-06-20T00:22:14.000Z,0
2023-06-20T00:23:30.000Z,0
2023-06-20T00:24:46.000Z,0
2023-06-20T00:26:02.000Z,0
2023-06-20T00:27:18.000Z,0
2023-06-20T00:28:35.000Z,0
2023-06-20T00:29:51.000Z,0
2023-06-20T00:31:07.000Z,0
2023-06-20T00:32:22.000Z,0
2023-06-20T00:33:38.000Z,0
2023-06-20T00:34:55.000Z,0
2023-06-20T00:36:10.228Z,0
2023-06-20T00:37:27.000Z,0
2023-06-20T00:38:42.605Z,0
2023-06-20T00:39:59.000Z,0
2023-06-20T00:41:14.982Z,0
2023-06-20T00:42:32.000Z,0
2023-06-20T00:43:48.000Z,0
2023-06-20T00:45:04.000Z,0
2023-06-20T00:46:20.000Z,0
2023-06-20T00:47:36.000Z,0
2023-06-20T00:48:52.000Z,0
2023-06-20T00:50:08.000Z,0
2023-06-20T00:51:24.000Z,0
2023-06-20T00:52:40.000Z,0
2023-06-20T00:53:55.888Z,0
2023-06-20T00:55:13.000Z,0
2023-06-20T00:56:28.265Z,0
2023-06-20T00:57:45.000Z,0
2023-06-20T00:59:01.000Z,0
2023-06-20T01:00:17.000Z,0
2023-06-20T01:01:33.021Z,0
2023-06-20T01:02:50.000Z,0
2023-06-20T01:04:06.000Z,0
2023-06-20T01:05:21.000Z,0
2023-06-20T01:06:37.000Z,0
2023-06-20T01:07:52.982Z,0
2023-06-20T01:09:10.000Z,0
2023-06-20T01:10:26.000Z,0
2023-06-20T01:11:42.000Z,0
2023-06-20T01:12:57.000Z,0
2023-06-20T01:14:13.000Z,0
2023-06-20T01:15:30.000Z,0
2023-06-20T01:16:46.000Z,0
2023-06-20T01:18:02.000Z,0
2023-06-20T01:19:18.000Z,0
2023-06-20T01:20:34.000Z,0
2023-06-20T01:21:50.080Z,0
2023-06-20T01:23:07.000Z,0
2023-06-20T01:24:22.458Z,0
2023-06-20T01:25:39.000Z,0
2023-06-20T01:26:55.000Z,0
2023-06-20T01:28:12.000Z,0
2023-06-20T01:29:27.000Z,0
2023-06-20T01:30:42.418Z,0
2023-06-20T01:31:59.000Z,0
2023-06-20T01:33:15.000Z,0
2023-06-20T01:34:31.000Z,0
2023-06-20T01:35:48.000Z,0
2023-06-20T01:37:04.000Z,0
2023-06-20T01:38:20.000Z,0
2023-06-20T01:39:35.740Z,0
2023-06-20T01:40:52.000Z,0
2023-06-20T01:42:09.000Z,0
2023-06-20T01:43:25.000Z,0
2023-06-20T01:44:41.000Z,0
2023-06-20T01:45:56.000Z,0
2023-06-20T01:47:12.000Z,0
2023-06-20T01:48:29.000Z,0
2023-06-20T01:49:44.267Z,0
2023-06-20T01:51:01.000Z,0
2023-06-20T01:52:16.646Z,0
2023-06-20T01:53:33.000Z,0
2023-06-20T01:54:49.024Z,0
2023-06-20T01:56:06.000Z,0
2023-06-20T01:57:22.000Z,0
2023-06-20T01:58:37.590Z,0
2023-06-20T01:59:54.000Z,0
2023-06-20T02:01:10.000Z,0
2023-06-20T02:02:26.000Z,0
2023-06-20T02:03:42.000Z,0
2023-06-20T02:04:58.000Z,0
2023-06-20T02:06:13.739Z,0
2023-06-20T02:07:30.000Z,0
2023-06-20T02:08:47.000Z,0
2023-06-20T02:10:02.308Z,0
2023-06-20T02:11:19.000Z,0
2023-06-20T02:12:35.000Z,0
2023-06-20T02:13:51.000Z,0
2023-06-20T02:15:08.000Z,0
2023-06-20T02:16:24.000Z,0
2023-06-20T02:17:40.000Z,0
2023-06-20T02:18:55.000Z,0
2023-06-20T02:20:11.000Z,0
2023-06-20T02:21:28.000Z,0
2023-06-20T02:22:44.000Z,0
2023-06-20T02:24:00.000Z,0
2023-06-20T02:25:16.000Z,0
2023-06-20T02:26:32.000Z,0
2023-06-20T02:27:47.969Z,0
2023-06-20T02:29:05.000Z,0
2023-06-20T02:30:21.000Z,0
2023-06-20T02:31:36.535Z,0
2023-06-20T02:32:52.724Z,4
2023-06-20T02:34:09.000Z,4
2023-06-20T02:35:25.000Z,0
2023-06-20T02:36:41.000Z,0
2023-06-20T02:37:57.000Z,4
2023-06-20T02:39:13.000Z,4
2023-06-20T02:40:28.875Z,4
2023-06-20T02:41:46.000Z,4
2023-06-20T02:43:02.000Z,8
2023-06-20T02:44:18.000Z,4
2023-06-20T02:45:34.000Z,8
2023-06-20T02:46:49.820Z,8
2023-06-20T02:48:07.000Z,12
2023-06-20T02:49:23.000Z,12
2023-06-20T02:50:39.000Z,8
2023-06-20T02:51:54.000Z,12
2023-06-20T02:53:10.000Z,12
2023-06-20T02:54:25.969Z,16
2023-06-20T02:55:43.000Z,16
2023-06-20T02:56:59.000Z,20
2023-06-20T02:58:15.000Z,20
2023-06-20T02:59:30.726Z,20
2023-06-20T03:00:47.000Z,28
2023-06-20T03:02:04.000Z,32
2023-06-20T03:03:20.000Z,32
2023-06-20T03:04:35.482Z,36
2023-06-20T03:05:52.000Z,36
2023-06-20T03:07:08.000Z,40
2023-06-20T03:08:23.064Z,44
2023-06-20T03:09:39.253Z,48
2023-06-20T03:10:55.442Z,52
2023-06-20T03:12:12.000Z,52
2023-06-20T03:13:27.819Z,56
2023-06-20T03:14:45.000Z,60
2023-06-20T03:16:01.000Z,64
2023-06-20T03:17:16.386Z,68
2023-06-20T03:18:33.000Z,76
2023-06-20T03:19:49.000Z,80
2023-06-20T03:21:05.000Z,84
2023-06-20T03:22:22.000Z,92
2023-06-20T03:23:38.000Z,96
2023-06-20T03:24:53.000Z,104
2023-06-20T03:26:09.000Z,108
2023-06-20T03:27:25.000Z,112
2023-06-20T03:28:42.000Z,112
2023-06-20T03:29:58.000Z,116
2023-06-20T03:31:14.000Z,120
2023-06-20T03:32:30.000Z,128
2023-06-20T03:33:46.000Z,140
2023-06-20T03:35:03.000Z,148
2023-06-20T03:36:19.000Z,160
2023-06-20T03:37:35.000Z,168
2023-06-20T03:38:50.612Z,188
2023-06-20T03:40:07.000Z,212
2023-06-20T03:41:23.000Z,236
2023-06-20T03:42:39.000Z,252
2023-06-20T03:43:55.000Z,276
2023-06-20T03:45:11.000Z,284
2023-06-20T03:46:27.000Z,288
2023-06-20T03:47:43.000Z,288
2023-06-20T03:49:00.000Z,296
2023-06-20T03:50:16.000Z,312
2023-06-20T03:51:32.000Z,328
2023-06-20T03:52:48.000Z,348
2023-06-20T03:54:04.000Z,376
2023-06-20T03:55:21.000Z,404
2023-06-20T03:56:37.000Z,440
2023-06-20T03:57:52.462Z,472
2023-06-20T03:59:08.000Z,508
2023-06-20T04:00:24.000Z,568
2023-06-20T04:01:41.000Z,636
2023-06-20T04:02:57.000Z,728
2023-06-20T04:04:13.000Z,804
2023-06-20T04:05:29.000Z,868
2023-06-20T04:06:45.000Z,952
2023-06-20T04:08:01.000Z,1032
2023-06-20T04:09:18.000Z,1088
2023-06-20T04:10:34.000Z,1080
2023-06-20T04:11:50.000Z,1028
2023-06-20T04:13:06.000Z,944
2023-06-20T04:14:22.000Z,860
2023-06-20T04:15:38.000Z,788
2023-06-20T04:16:54.000Z,724
2023-06-20T04:18:09.515Z,696
2023-06-20T04:19:26.000Z,692
2023-06-20T04:20:41.893Z,696
2023-06-20T04:21:59.000Z,700
2023-06-20T04:23:15.000Z,696
2023-06-20T04:24:31.000Z,644
2023-06-20T04:25:47.000Z,584
2023-06-20T04:27:03.000Z,544
2023-06-20T04:28:20.000Z,536
2023-06-20T04:29:35.213Z,500
2023-06-20T04:30:52.000Z,492
2023-06-20T04:32:07.000Z,480
2023-06-20T04:33:23.000Z,484
2023-06-20T04:34:39.000Z,508
2023-06-20T04:35:56.000Z,564
2023-06-20T04:37:12.000Z,636
2023-06-20T04:38:28.000Z,732
2023-06-20T04:39:43.737Z,884
2023-06-20T04:41:00.000Z,1072
2023-06-20T04:42:17.000Z,1244
2023-06-20T04:43:33.000Z,1468
2023-06-20T04:44:49.000Z,1780
2023-06-20T04:46:04.681Z,2076
2023-06-20T04:47:21.000Z,2308
2023-06-20T04:48:37.000Z,2492
2023-06-20T04:49:53.000Z,2628
2023-06-20T04:51:08.450Z,2800
2023-06-20T04:52:25.000Z,3056
2023-06-20T04:53:40.828Z,3280
2023-06-20T04:54:58.000Z,3436
2023-06-20T04:56:14.000Z,3492
2023-06-20T04:57:30.000Z,3468
2023-06-20T04:58:46.000Z,3412
2023-06-20T05:00:02.000Z,3336
2023-06-20T05:01:18.000Z,3260
2023-06-20T05:02:34.150Z,3224
2023-06-20T05:03:51.000Z,3244
2023-06-20T05:05:06.000Z,3308
2023-06-20T05:06:22.000Z,3388
2023-06-20T05:07:38.000Z,3456
2023-06-20T05:08:55.000Z,3540
2023-06-20T05:10:10.298Z,3676
2023-06-20T05:11:26.487Z,3832
2023-06-20T05:12:43.000Z,4020
2023-06-20T05:13:59.000Z,4264
2023-06-20T05:15:16.000Z,4520
2023-06-20T05:16:32.000Z,4660
2023-06-20T05:17:48.000Z,4740
2023-06-20T05:19:04.000Z,4764
2023-06-20T05:20:20.000Z,4844
2023-06-20T05:21:36.000Z,5012
2023-06-20T05:22:52.000Z,5260
2023-06-20T05:24:07.389Z,5756
2023-06-20T05:25:24.000Z,6432
2023-06-20T05:26:40.000Z,7168
2023-06-20T05:27:55.000Z,7732
2023-06-20T05:29:12.000Z,8132
2023-06-20T05:30:28.000Z,8596
2023-06-20T05:31:44.000Z,9104
2023-06-20T05:33:00.000Z,9892
2023-06-20T05:34:16.000Z,10492
2023-06-20T05:35:32.113Z,10820
2023-06-20T05:36:49.000Z,10840
2023-06-20T05:38:05.000Z,10500
2023-06-20T05:39:20.679Z,10372
2023-06-20T05:40:37.000Z,9784
2023-06-20T05:41:54.000Z,9460
2023-06-20T05:43:10.000Z,10024
2023-06-20T05:44:25.000Z,9416
2023-06-20T05:45:40.639Z,10564
2023-06-20T05:46:57.000Z,11948
2023-06-20T05:48:13.016Z,11756
2023-06-20T05:49:30.000Z,11380
2023-06-20T05:50:46.000Z,11008
2023-06-20T05:52:02.000Z,10976
2023-06-20T05:53:17.774Z,11476
2023-06-20T05:54:34.000Z,9628
2023-06-20T05:55:51.000Z,8152
2023-06-20T05:57:07.000Z,7256
2023-06-20T05:58:22.530Z,6788
2023-06-20T05:59:39.000Z,6840
2023-06-20T06:00:55.000Z,7252
2023-06-20T06:02:11.000Z,7848
2023-06-20T06:03:27.000Z,8664
2023-06-20T06:04:43.000Z,9680
2023-06-20T06:05:58.679Z,10544
2023-06-20T06:07:15.000Z,10112
2023-06-20T06:08:32.000Z,9004
2023-06-20T06:09:48.000Z,8008
2023-06-20T06:11:04.000Z,7844
2023-06-20T06:12:20.000Z,7808
2023-06-20T06:13:36.000Z,7716
2023-06-20T06:14:53.000Z,8056
2023-06-20T06:16:09.000Z,8604
2023-06-20T06:17:25.000Z,9172
2023-06-20T06:18:40.000Z,9696
2023-06-20T06:19:56.000Z,9732
2023-06-20T06:21:12.000Z,9312
2023-06-20T06:22:29.000Z,9328
2023-06-20T06:23:45.000Z,9208
2023-06-20T06:25:01.000Z,8692
2023-06-20T06:26:16.709Z,8356
2023-06-20T06:27:33.000Z,8236
2023-06-20T06:28:50.000Z,8160
2023-06-20T06:30:05.275Z,8072
2023-06-20T06:31:21.463Z,7772
2023-06-20T06:32:37.651Z,7384
2023-06-20T06:33:53.839Z,7000
2023-06-20T06:35:10.000Z,6564
2023-06-20T06:36:26.000Z,6144
2023-06-20T06:37:42.000Z,5760
2023-06-20T06:38:58.000Z,5544
2023-06-20T06:40:13.798Z,5696
2023-06-20T06:41:30.000Z,6108
2023-06-20T06:42:47.000Z,6964
2023-06-20T06:44:03.000Z,8056
2023-06-20T06:45:19.000Z,8632
2023-06-20T06:46:35.000Z,8620
2023-06-20T06:47:51.000Z,8380
2023-06-20T06:49:07.116Z,8496
2023-06-20T06:50:23.305Z,8668
2023-06-20T06:51:39.000Z,8736
2023-06-20T06:52:55.000Z,8576
2023-06-20T06:54:11.000Z,8300
2023-06-20T06:55:28.000Z,7900
2023-06-20T06:56:44.000Z,7556
2023-06-20T06:58:00.000Z,7300
2023-06-20T06:59:15.639Z,7208
2023-06-20T07:00:32.000Z,7128
2023-06-20T07:01:49.000Z,6948
2023-06-20T07:03:05.000Z,6560
2023-06-20T07:04:21.000Z,6312
2023-06-20T07:05:37.000Z,6256
2023-06-20T07:06:53.000Z,6256
2023-06-20T07:08:08.000Z,6332
2023-06-20T07:09:25.000Z,6596
2023-06-20T07:10:40.352Z,6724
2023-06-20T07:11:57.000Z,6660
2023-06-20T07:13:13.000Z,7124
2023-06-20T07:14:29.000Z,7992
2023-06-20T07:15:46.000Z,9280
2023-06-20T07:17:02.000Z,10632
2023-06-20T07:18:18.000Z,11524
2023-06-20T07:19:34.000Z,11764
2023-06-20T07:20:50.000Z,12184
2023-06-20T07:22:07.000Z,13276
2023-06-20T07:23:23.000Z,14656
2023-06-20T07:24:38.000Z,15292
2023-06-20T07:25:54.000Z,15836
2023-06-20T07:27:10.000Z,16424
2023-06-20T07:28:27.000Z,17048
2023-06-20T07:29:43.000Z,18432
2023-06-20T07:30:59.000Z,19520
2023-06-20T07:32:15.000Z,20096
2023-06-20T07:33:31.000Z,20032
2023-06-20T07:34:46.953Z,20256
2023-06-20T07:36:04.000Z,20320
2023-06-20T07:37:20.000Z,19904
2023-06-20T07:38:36.000Z,20800
2023-06-20T07:39:52.000Z,22496
2023-06-20T07:41:07.000Z,21760
2023-06-20T07:42:24.000Z,19360
2023-06-20T07:43:39.292Z,18752
2023-06-20T07:44:56.000Z,19296
2023-06-20T07:46:12.000Z,18944
2023-06-20T07:47:28.000Z,18880
2023-06-20T07:48:44.046Z,18752
2023-06-20T07:50:01.000Z,19392
2023-06-20T07:51:17.000Z,21280
2023-06-20T07:52:33.000Z,29760
2023-06-20T07:53:49.000Z,24640
2023-06-20T07:55:05.000Z,22016
2023-06-20T07:56:22.000Z,21984
2023-06-20T07:57:37.000Z,21312
2023-06-20T07:58:53.000Z,19296
2023-06-20T08:00:09.000Z,16904
2023-06-20T08:01:25.000Z,16332
2023-06-20T08:02:42.000Z,14384
2023-06-20T08:03:58.000Z,15192
2023-06-20T08:05:14.000Z,15300
2023-06-20T08:06:30.000Z,13856
2023-06-20T08:07:46.000Z,13844
2023-06-20T08:09:03.000Z,13640
2023-06-20T08:10:19.000Z,13924
2023-06-20T08:11:34.458Z,14768
2023-06-20T08:12:51.000Z,15880
2023-06-20T08:14:06.000Z,17080
2023-06-20T08:15:23.000Z,18432
2023-06-20T08:16:39.000Z,26656
2023-06-20T08:17:55.000Z,45056
2023-06-20T08:19:11.000Z,26272
2023-06-20T08:20:27.000Z,23296
2023-06-20T08:21:43.000Z,22400
2023-06-20T08:23:00.000Z,25728
2023-06-20T08:24:16.000Z,32896
2023-06-20T08:25:32.000Z,37728
2023-06-20T08:26:47.741Z,23424
2023-06-20T08:28:04.000Z,13100
2023-06-20T08:29:21.000Z,13156
2023-06-20T08:30:36.000Z,13048
2023-06-20T08:31:52.000Z,13300
2023-06-20T08:33:08.000Z,13500
2023-06-20T08:34:24.000Z,13400
2023-06-20T08:35:41.000Z,13352
2023-06-20T08:36:57.000Z,14256
2023-06-20T08:38:13.000Z,14648
2023-06-20T08:39:29.000Z,22528
2023-06-20T08:40:45.000Z,29792
2023-06-20T08:42:02.000Z,18080
2023-06-20T08:43:18.000Z,30912
2023-06-20T08:44:33.402Z,33760
2023-06-20T08:45:50.000Z,29472
2023-06-20T08:47:05.000Z,30912
2023-06-20T08:48:21.000Z,23072
2023-06-20T08:49:38.000Z,10932
2023-06-20T08:50:54.000Z,9384
2023-06-20T08:52:10.000Z,9156
2023-06-20T08:53:25.743Z,11488
2023-06-20T08:54:42.000Z,10868
2023-06-20T08:55:59.000Z,9176
2023-06-20T08:57:15.000Z,8916
2023-06-20T08:58:31.000Z,8684
2023-06-20T08:59:47.000Z,8716
2023-06-20T09:01:03.000Z,8752
2023-06-20T09:02:20.000Z,8832
2023-06-20T09:03:35.000Z,8872
2023-06-20T09:04:51.000Z,8760
2023-06-20T09:06:06.650Z,8668
2023-06-20T09:07:23.000Z,8952
2023-06-20T09:08:40.000Z,9868
2023-06-20T09:09:56.000Z,24800
2023-06-20T09:11:12.000Z,22784
2023-06-20T09:12:28.000Z,13320
2023-06-20T09:13:44.000Z,13980
2023-06-20T09:15:00.000Z,16204
2023-06-20T09:16:17.000Z,18272
2023-06-20T09:17:33.000Z,14460
2023-06-20T09:18:49.000Z,9744
2023-06-20T09:20:04.000Z,9292
2023-06-20T09:21:20.000Z,9016
2023-06-20T09:22:37.000Z,8940
2023-06-20T09:23:52.311Z,8940
2023-06-20T09:25:08.501Z,8896
2023-06-20T09:26:25.000Z,8728
2023-06-20T09:27:41.000Z,8724
2023-06-20T09:28:58.000Z,8772
2023-06-20T09:30:14.000Z,8908
2023-06-20T09:31:30.000Z,8748
2023-06-20T09:32:45.639Z,8724
2023-06-20T09:34:01.829Z,8736
2023-06-20T09:35:19.000Z,8796
2023-06-20T09:36:34.000Z,8860
2023-06-20T09:37:50.000Z,8852
2023-06-20T09:39:06.000Z,8944
2023-06-20T09:40:22.000Z,11708
2023-06-20T09:41:38.000Z,44992
2023-06-20T09:42:54.000Z,61664
2023-06-20T09:44:10.000Z,37376
2023-06-20T09:45:26.000Z,10532
2023-06-20T09:46:42.000Z,8968
2023-06-20T09:47:58.000Z,9600
2023-06-20T09:49:15.000Z,9184
2023-06-20T09:50:31.000Z,8500
2023-06-20T09:51:47.000Z,8396
2023-06-20T09:53:03.000Z,8372
2023-06-20T09:54:19.000Z,8188
2023-06-20T09:55:35.099Z,8100
2023-06-20T09:56:52.000Z,7988
2023-06-20T09:58:08.000Z,7968
2023-06-20T09:59:23.000Z,7976
2023-06-20T10:00:39.000Z,8016
2023-06-20T10:01:56.000Z,8164
2023-06-20T10:03:12.000Z,8224
2023-06-20T10:04:28.000Z,8208
2023-06-20T10:05:44.000Z,8128
2023-06-20T10:06:59.829Z,8224
2023-06-20T10:08:17.000Z,8224
2023-06-20T10:09:33.000Z,8204
2023-06-20T10:10:49.000Z,8308
2023-06-20T10:12:05.000Z,8424
2023-06-20T10:13:21.000Z,8452
2023-06-20T10:14:37.000Z,8340
2023-06-20T10:15:53.000Z,8168
2023-06-20T10:17:08.367Z,7932
2023-06-20T10:18:25.000Z,7836
2023-06-20T10:19:41.000Z,7924
2023-06-20T10:20:57.000Z,8220
2023-06-20T10:22:14.000Z,8892
2023-06-20T10:23:30.000Z,8588
2023-06-20T10:24:45.508Z,8580
2023-06-20T10:26:01.698Z,8728
2023-06-20T10:27:18.000Z,9176
2023-06-20T10:28:35.000Z,9508
2023-06-20T10:29:51.000Z,9456
2023-06-20T10:31:07.000Z,10328
2023-06-20T10:32:22.000Z,35552
2023-06-20T10:33:38.000Z,74688
2023-06-20T10:34:55.000Z,63200
2023-06-20T10:36:11.000Z,31136
2023-06-20T10:37:26.427Z,13064
2023-06-20T10:38:43.000Z,16204
2023-06-20T10:39:59.000Z,16208
2023-06-20T10:41:16.000Z,13672
2023-06-20T10:42:32.000Z,9044
2023-06-20T10:43:48.000Z,9280
2023-06-20T10:45:04.000Z,11904
2023-06-20T10:46:19.760Z,28672
2023-06-20T10:47:36.000Z,26368
2023-06-20T10:48:52.000Z,29536
2023-06-20T10:50:08.000Z,26240
2023-06-20T10:51:24.000Z,25664
2023-06-20T10:52:40.000Z,17032
2023-06-20T10:53:56.000Z,13212
2023-06-20T10:55:13.000Z,14808
2023-06-20T10:56:29.000Z,15872
2023-06-20T10:57:45.000Z,27008
2023-06-20T10:59:01.000Z,30720
2023-06-20T11:00:17.000Z,35584
2023-06-20T11:01:34.000Z,31616
2023-06-20T11:02:50.000Z,31488
2023-06-20T11:04:06.000Z,17952
2023-06-20T11:05:21.000Z,19808
2023-06-20T11:06:37.000Z,26592
2023-06-20T11:07:54.000Z,33408
2023-06-20T11:09:10.000Z,21600
2023-06-20T11:10:26.000Z,17200
2023-06-20T11:11:42.000Z,29984
2023-06-20T11:12:58.000Z,35456
2023-06-20T11:14:14.000Z,52672
2023-06-20T11:15:31.000Z,42272
2023-06-20T11:16:47.000Z,38432
2023-06-20T11:18:03.000Z,15812
2023-06-20T11:19:19.000Z,61440
2023-06-20T11:20:35.000Z,38624
2023-06-20T11:21:51.000Z,17920
2023-06-20T11:23:07.000Z,13120
2023-06-20T11:24:23.000Z,12512
2023-06-20T11:25:39.000Z,12652
2023-06-20T11:26:55.000Z,13064
2023-06-20T11:28:12.000Z,13652
2023-06-20T11:29:28.000Z,13856
2023-06-20T11:30:44.000Z,15432
2023-06-20T11:32:00.000Z,16784
2023-06-20T11:33:16.000Z,20384
2023-06-20T11:34:33.000Z,20448
2023-06-20T11:35:49.000Z,20064
2023-06-20T11:37:05.000Z,20288
2023-06-20T11:38:20.000Z,21696
2023-06-20T11:39:36.000Z,20096
2023-06-20T11:40:53.000Z,19936
2023-06-20T11:42:09.000Z,20928
2023-06-20T11:43:24.399Z,20672
2023-06-20T11:44:40.590Z,17312
2023-06-20T11:45:57.000Z,16076
2023-06-20T11:47:13.000Z,18240
2023-06-20T11:48:29.162Z,18272
2023-06-20T11:49:46.000Z,21088
2023-06-20T11:51:02.000Z,23360
2023-06-20T11:52:17.735Z,25568
2023-06-20T11:53:34.000Z,20352
2023-06-20T11:54:50.000Z,49760
2023-06-20T11:56:06.000Z,74880
2023-06-20T11:57:22.000Z,61984
2023-06-20T11:58:38.000Z,21344
2023-06-20T11:59:54.000Z,24224
2023-06-20T12:01:11.000Z,15464
2023-06-20T12:02:26.278Z,14556
2023-06-20T12:03:43.000Z,15772
2023-06-20T12:04:59.000Z,45472
2023-06-20T12:06:15.000Z,61568
2023-06-20T12:07:32.000Z,23200
2023-06-20T12:08:48.000Z,60192
2023-06-20T12:10:04.000Z,17524
2023-06-20T12:11:19.000Z,19008
2023-06-20T12:12:35.000Z,36928
2023-06-20T12:13:51.013Z,67936
2023-06-20T12:15:08.000Z,69600
2023-06-20T12:16:24.000Z,33920
2023-06-20T12:17:39.586Z,20384
2023-06-20T12:18:56.000Z,70816
2023-06-20T12:20:11.967Z,63424
2023-06-20T12:21:29.000Z,44800
2023-06-20T12:22:45.000Z,26784
2023-06-20T12:24:01.000Z,51584
2023-06-20T12:25:17.000Z,67584
2023-06-20T12:26:32.923Z,19232
2023-06-20T12:27:49.000Z,39936
2023-06-20T12:29:05.000Z,29152
2023-06-20T12:30:21.000Z,39744
2023-06-20T12:31:37.000Z,64320
2023-06-20T12:32:52.896Z,55872
2023-06-20T12:34:10.000Z,46400
2023-06-20T12:35:25.278Z,35264
2023-06-20T12:36:42.000Z,21728
2023-06-20T12:37:58.000Z,20064
2023-06-20T12:39:14.000Z,21792
2023-06-20T12:40:31.000Z,48864
2023-06-20T12:41:47.000Z,38464
2023-06-20T12:43:03.000Z,22816
2023-06-20T12:44:18.000Z,25248
2023-06-20T12:45:34.000Z,13216
2023-06-20T12:46:51.000Z,14724
2023-06-20T12:48:06.204Z,16388
2023-06-20T12:49:23.000Z,17600
2023-06-20T12:50:39.000Z,18368
2023-06-20T12:51:55.000Z,21888
2023-06-20T12:53:11.000Z,24576
2023-06-20T12:54:28.000Z,65216
2023-06-20T12:55:43.352Z,62080
2023-06-20T12:57:00.000Z,57600
2023-06-20T12:58:16.000Z,57888
2023-06-20T12:59:32.000Z,42464
2023-06-20T13:00:48.000Z,13304
2023-06-20T13:02:04.000Z,18720
2023-06-20T13:03:20.000Z,15640
2023-06-20T13:04:36.000Z,67936
2023-06-20T13:05:52.000Z,62208
2023-06-20T13:07:09.000Z,51168
2023-06-20T13:08:25.000Z,47584
2023-06-20T13:09:41.000Z,29152
2023-06-20T13:10:57.000Z,24416
2023-06-20T13:12:13.000Z,36096
2023-06-20T13:13:30.000Z,16568
2023-06-20T13:14:46.000Z,15860
2023-06-20T13:16:02.000Z,15088
2023-06-20T13:17:17.000Z,15672
2023-06-20T13:18:32.825Z,17440
2023-06-20T13:19:50.000Z,41280
2023-06-20T13:21:06.000Z,58016
2023-06-20T13:22:21.398Z,15384
2023-06-20T13:23:38.000Z,14612
2023-06-20T13:24:54.000Z,14864
2023-06-20T13:26:10.000Z,14868
2023-06-20T13:27:27.000Z,42976
2023-06-20T13:28:43.000Z,67968
2023-06-20T13:29:59.000Z,82848
2023-06-20T13:31:15.000Z,70720
2023-06-20T13:32:30.927Z,40192
2023-06-20T13:33:46.135Z,36352
2023-06-20T13:35:03.000Z,15944
2023-06-20T13:36:19.000Z,16040
2023-06-20T13:37:35.000Z,15216
2023-06-20T13:38:51.000Z,13516
2023-06-20T13:40:08.000Z,14716
2023-06-20T13:41:23.285Z,15360
2023-06-20T13:42:40.000Z,20768
2023-06-20T13:43:55.667Z,21536
2023-06-20T13:45:12.000Z,20032
2023-06-20T13:46:29.000Z,22272
2023-06-20T13:47:44.240Z,69984
2023-06-20T13:49:00.432Z,63584
2023-06-20T13:50:16.000Z,17384
2023-06-20T13:51:32.000Z,17328
2023-06-20T13:52:49.000Z,61632
2023-06-20T13:54:05.000Z,50624
2023-06-20T13:55:21.000Z,67136
2023-06-20T13:56:37.000Z,63328
2023-06-20T13:57:52.000Z,40032
2023-06-20T13:59:09.000Z,43680
2023-06-20T14:00:25.000Z,60416
2023-06-20T14:01:41.000Z,59712
2023-06-20T14:02:57.000Z,58400
2023-06-20T14:04:13.000Z,50464
2023-06-20T14:05:29.000Z,53440
2023-06-20T14:06:46.000Z,62080
2023-06-20T14:08:02.000Z,59776
2023-06-20T14:09:18.000Z,60128
2023-06-20T14:10:34.000Z,54880
2023-06-20T14:11:50.000Z,44768
2023-06-20T14:13:06.104Z,34016
2023-06-20T14:14:22.000Z,30176
2023-06-20T14:15:38.000Z,33344
2023-06-20T14:16:54.000Z,41248
2023-06-20T14:18:10.000Z,43456
2023-06-20T14:19:27.000Z,48448
2023-06-20T14:20:42.271Z,48384
2023-06-20T14:21:59.000Z,53664
2023-06-20T14:23:15.000Z,55648
2023-06-20T14:24:31.000Z,53664
2023-06-20T14:25:48.000Z,53664
2023-06-20T14:27:04.000Z,46240
2023-06-20T14:28:20.000Z,31680
2023-06-20T14:29:36.000Z,29920
2023-06-20T14:30:51.000Z,34208
2023-06-20T14:32:07.014Z,41536
2023-06-20T14:33:24.000Z,42208
2023-06-20T14:34:39.399Z,40128
2023-06-20T14:35:56.000Z,40960
2023-06-20T14:37:11.782Z,36448
2023-06-20T14:38:27.973Z,36640
2023-06-20T14:39:45.000Z,27616
2023-06-20T14:41:01.000Z,21088
2023-06-20T14:42:17.000Z,27904
2023-06-20T14:43:33.000Z,28256
2023-06-20T14:44:49.000Z,23584
2023-06-20T14:46:05.123Z,21568
2023-06-20T14:47:20.331Z,17824
2023-06-20T14:48:37.000Z,18336
2023-06-20T14:49:52.713Z,16672
2023-06-20T14:51:09.000Z,28544
2023-06-20T14:52:26.000Z,34368
2023-06-20T14:53:42.000Z,35392
2023-06-20T14:54:58.000Z,38048
2023-06-20T14:56:14.000Z,38592
2023-06-20T14:57:30.000Z,44096
2023-06-20T14:58:47.000Z,50432
2023-06-20T15:00:03.000Z,52288
2023-06-20T15:01:19.000Z,53792
2023-06-20T15:02:34.625Z,49344
2023-06-20T15:03:50.000Z,46656
2023-06-20T15:05:06.024Z,34496
2023-06-20T15:06:23.000Z,25664
2023-06-20T15:07:38.407Z,36192
2023-06-20T15:08:55.000Z,41184
2023-06-20T15:10:11.000Z,38848
2023-06-20T15:11:27.000Z,38688
2023-06-20T15:12:44.000Z,29248
2023-06-20T15:14:00.000Z,45376
2023-06-20T15:15:16.000Z,44928
2023-06-20T15:16:32.000Z,46176
2023-06-20T15:17:48.000Z,46016
2023-06-20T15:19:05.000Z,43392
2023-06-20T15:20:20.000Z,44032
2023-06-20T15:21:35.531Z,45120
2023-06-20T15:22:52.000Z,41408
2023-06-20T15:24:08.000Z,28352
2023-06-20T15:25:24.105Z,19136
2023-06-20T15:26:41.000Z,20736
2023-06-20T15:27:57.000Z,26624
2023-06-20T15:29:13.000Z,27456
2023-06-20T15:30:29.000Z,31648
2023-06-20T15:31:46.000Z,30496
2023-06-20T15:33:02.000Z,29920
2023-06-20T15:34:17.447Z,30944
2023-06-20T15:35:34.000Z,32128
2023-06-20T15:36:49.000Z,30944
2023-06-20T15:38:06.000Z,30368
2023-06-20T15:39:22.000Z,29248
2023-06-20T15:40:38.000Z,12332
2023-06-20T15:41:54.000Z,10020
2023-06-20T15:43:09.803Z,11568
2023-06-20T15:44:26.000Z,10036
2023-06-20T15:45:43.000Z,10688
2023-06-20T15:46:58.376Z,11272
2023-06-20T15:48:14.567Z,11216
2023-06-20T15:49:31.000Z,11108
2023-06-20T15:50:47.000Z,10768
2023-06-20T15:52:03.141Z,9992
2023-06-20T15:53:18.348Z,10260
2023-06-20T15:54:35.000Z,10580
2023-06-20T15:55:51.000Z,10460
2023-06-20T15:57:07.000Z,9112
2023-06-20T15:58:24.000Z,7104
2023-06-20T15:59:40.000Z,6464
2023-06-20T16:00:55.495Z,5880
2023-06-20T16:02:12.000Z,5712
2023-06-20T16:03:28.000Z,5840
2023-06-20T16:04:45.000Z,6164
2023-06-20T16:06:01.000Z,6416
2023-06-20T16:07:17.000Z,6580
2023-06-20T16:08:33.000Z,6572
2023-06-20T16:09:48.000Z,6560
2023-06-20T16:11:05.000Z,6272
2023-06-20T16:12:21.000Z,5960
2023-06-20T16:13:36.420Z,5812
2023-06-20T16:14:52.611Z,5868
2023-06-20T16:16:09.000Z,5760
2023-06-20T16:17:24.993Z,5600
2023-06-20T16:18:42.000Z,5544
2023-06-20T16:19:58.000Z,5612
2023-06-20T16:21:14.000Z,5868
2023-06-20T16:22:30.000Z,6212
2023-06-20T16:23:45.948Z,6376
2023-06-20T16:25:03.000Z,6616
2023-06-20T16:26:17.346Z,6692
2023-06-20T16:27:34.000Z,6856
2023-06-20T16:28:50.000Z,7180
2023-06-20T16:30:06.000Z,7380
2023-06-20T16:31:23.000Z,7492
2023-06-20T16:32:38.299Z,7532
2023-06-20T16:33:55.000Z,7336
2023-06-20T16:35:11.000Z,7296
2023-06-20T16:36:27.000Z,7336
2023-06-20T16:37:43.062Z,6864
2023-06-20T16:39:00.000Z,6364
2023-06-20T16:40:15.444Z,5848
2023-06-20T16:41:32.000Z,5576
2023-06-20T16:42:47.000Z,5776
2023-06-20T16:44:04.000Z,6232
2023-06-20T16:45:20.000Z,7328
2023-06-20T16:46:36.000Z,8984
2023-06-20T16:47:51.604Z,9680
2023-06-20T16:49:08.000Z,9784
2023-06-20T16:50:24.000Z,9796
2023-06-20T16:51:41.000Z,9820
2023-06-20T16:52:57.000Z,9796
2023-06-20T16:54:12.559Z,9796
2023-06-20T16:55:29.000Z,9660
2023-06-20T16:56:45.000Z,9808
2023-06-20T16:58:01.133Z,10004
2023-06-20T16:59:18.000Z,10024